sensor_id;sensor_type;location;lat;lon;timestamp;P1;durP1;ratioP1;P2;durP2;ratioP2
11655;SDS011;5884;43.618;1.438;2023-05-10T04:46:22;23.57;;;3.10;;
11655;SDS011;5884;43.618;1.438;2023-05-10T04:48:49;14.67;;;3.33;;
11655;SDS011;5884;43.618;1.438;2023-05-10T04:51:17;18.13;;;3.20;;
11655;SDS011;5884;43.618;1.438;2023-05-10T04:53:44;12.37;;;2.57;;
11655;SDS011;5884;43.618;1.438;2023-05-10T04:56:12;14.13;;;2.87;;
11655;SDS011;5884;43.618;1.438;2023-05-10T04:58:39;11.73;;;2.60;;
11655;SDS011;5884;43.618;1.438;2023-05-10T05:01:07;18.93;;;3.73;;
11655;SDS011;5884;43.618;1.438;2023-05-10T05:03:37;15.80;;;3.40;;
11655;SDS011;5884;43.618;1.438;2023-05-10T05:06:04;14.47;;;3.17;;
11655;SDS011;5884;43.618;1.438;2023-05-10T05:08:32;17.37;;;3.33;;
11655;SDS011;5884;43.618;1.438;2023-05-10T05:10:59;16.07;;;3.33;;
11655;SDS011;5884;43.618;1.438;2023-05-10T05:13:26;13.90;;;3.07;;
11655;SDS011;5884;43.618;1.438;2023-05-10T05:15:54;14.73;;;3.17;;
11655;SDS011;5884;43.618;1.438;2023-05-10T05:18:21;14.53;;;3.63;;
11655;SDS011;5884;43.618;1.438;2023-05-10T05:20:49;21.27;;;3.60;;
11655;SDS011;5884;43.618;1.438;2023-05-10T05:23:17;15.43;;;3.17;;
11655;SDS011;5884;43.618;1.438;2023-05-10T05:25:45;14.50;;;3.20;;
11655;SDS011;5884;43.618;1.438;2023-05-10T05:28:12;15.80;;;3.30;;
11655;SDS011;5884;43.618;1.438;2023-05-10T05:30:40;19.17;;;3.27;;
11655;SDS011;5884;43.618;1.438;2023-05-10T05:33:07;21.83;;;3.90;;
11655;SDS011;5884;43.618;1.438;2023-05-10T05:35:34;18.47;;;3.17;;
11655;SDS011;5884;43.618;1.438;2023-05-10T05:38:03;18.03;;;3.23;;
11655;SDS011;5884;43.618;1.438;2023-05-10T05:40:30;16.67;;;3.00;;
11655;SDS011;5884;43.618;1.438;2023-05-10T05:42:57;17.13;;;3.80;;
11655;SDS011;5884;43.618;1.438;2023-05-10T05:45:24;15.97;;;3.53;;
11655;SDS011;5884;43.618;1.438;2023-05-10T05:47:52;16.37;;;3.13;;
11655;SDS011;5884;43.618;1.438;2023-05-10T05:50:19;21.00;;;3.30;;
11655;SDS011;5884;43.618;1.438;2023-05-10T05:52:46;16.80;;;3.27;;
11655;SDS011;5884;43.618;1.438;2023-05-10T05:55:15;19.53;;;3.33;;
11655;SDS011;5884;43.618;1.438;2023-05-10T05:57:42;15.87;;;3.33;;
11655;SDS011;5884;43.618;1.438;2023-05-10T06:00:10;19.23;;;3.30;;
11655;SDS011;5884;43.618;1.438;2023-05-10T06:02:38;15.57;;;3.37;;
11655;SDS011;5884;43.618;1.438;2023-05-10T06:05:05;15.17;;;2.90;;
11655;SDS011;5884;43.618;1.438;2023-05-10T06:07:34;16.73;;;3.87;;
11655;SDS011;5884;43.618;1.438;2023-05-10T06:10:01;15.77;;;3.27;;
11655;SDS011;5884;43.618;1.438;2023-05-10T06:12:31;14.83;;;3.50;;
11655;SDS011;5884;43.618;1.438;2023-05-10T06:14:58;16.83;;;3.63;;
11655;SDS011;5884;43.618;1.438;2023-05-10T06:17:25;14.00;;;3.13;;
11655;SDS011;5884;43.618;1.438;2023-05-10T06:19:53;24.17;;;4.33;;
11655;SDS011;5884;43.618;1.438;2023-05-10T06:22:21;17.10;;;3.10;;
11655;SDS011;5884;43.618;1.438;2023-05-10T06:24:48;17.43;;;3.77;;
11655;SDS011;5884;43.618;1.438;2023-05-10T06:27:15;20.23;;;3.43;;
11655;SDS011;5884;43.618;1.438;2023-05-10T06:29:44;18.47;;;4.57;;
11655;SDS011;5884;43.618;1.438;2023-05-10T06:32:11;20.70;;;3.57;;
11655;SDS011;5884;43.618;1.438;2023-05-10T06:34:38;11.97;;;3.17;;
11655;SDS011;5884;43.618;1.438;2023-05-10T06:37:05;21.93;;;3.70;;
11655;SDS011;5884;43.618;1.438;2023-05-10T06:39:32;18.47;;;3.43;;
11655;SDS011;5884;43.618;1.438;2023-05-10T06:42:00;15.87;;;4.07;;
11655;SDS011;5884;43.618;1.438;2023-05-10T06:44:29;15.00;;;3.37;;
11655;SDS011;5884;43.618;1.438;2023-05-10T06:46:58;13.23;;;3.83;;
11655;SDS011;5884;43.618;1.438;2023-05-10T06:49:25;14.10;;;3.60;;
11655;SDS011;5884;43.618;1.438;2023-05-10T06:51:52;15.00;;;3.73;;
11655;SDS011;5884;43.618;1.438;2023-05-10T06:54:20;21.50;;;3.90;;
11655;SDS011;5884;43.618;1.438;2023-05-10T06:56:48;19.77;;;3.50;;
11655;SDS011;5884;43.618;1.438;2023-05-10T06:59:15;21.67;;;3.87;;
11655;SDS011;5884;43.618;1.438;2023-05-10T07:01:44;18.63;;;3.30;;
11655;SDS011;5884;43.618;1.438;2023-05-10T07:04:12;21.67;;;3.50;;
11655;SDS011;5884;43.618;1.438;2023-05-10T07:06:39;16.33;;;3.50;;
11655;SDS011;5884;43.618;1.438;2023-05-10T07:09:07;18.57;;;3.70;;
11655;SDS011;5884;43.618;1.438;2023-05-10T07:11:34;19.60;;;3.67;;
11655;SDS011;5884;43.618;1.438;2023-05-10T07:14:02;24.53;;;3.90;;
11655;SDS011;5884;43.618;1.438;2023-05-10T07:16:30;19.87;;;3.97;;
11655;SDS011;5884;43.618;1.438;2023-05-10T07:18:57;17.60;;;4.07;;
11655;SDS011;5884;43.618;1.438;2023-05-10T07:21:26;15.07;;;3.47;;
11655;SDS011;5884;43.618;1.438;2023-05-10T07:23:53;15.57;;;3.20;;
11655;SDS011;5884;43.618;1.438;2023-05-10T07:26:20;18.40;;;3.57;;
11655;SDS011;5884;43.618;1.438;2023-05-10T07:28:48;20.30;;;3.70;;
11655;SDS011;5884;43.618;1.438;2023-05-10T07:31:15;17.77;;;4.37;;
11655;SDS011;5884;43.618;1.438;2023-05-10T07:33:42;26.57;;;4.10;;
11655;SDS011;5884;43.618;1.438;2023-05-10T07:36:09;18.13;;;3.53;;
11655;SDS011;5884;43.618;1.438;2023-05-10T07:38:38;20.73;;;3.53;;
11655;SDS011;5884;43.618;1.438;2023-05-10T07:41:05;18.57;;;4.03;;
11655;SDS011;5884;43.618;1.438;2023-05-10T07:43:32;17.73;;;3.13;;
11655;SDS011;5884;43.618;1.438;2023-05-10T07:45:59;18.63;;;3.30;;
11655;SDS011;5884;43.618;1.438;2023-05-10T07:48:27;18.73;;;3.03;;
11655;SDS011;5884;43.618;1.438;2023-05-10T07:50:54;19.43;;;2.97;;
11655;SDS011;5884;43.618;1.438;2023-05-10T07:53:21;15.23;;;3.00;;
11655;SDS011;5884;43.618;1.438;2023-05-10T07:55:51;22.57;;;3.77;;
11655;SDS011;5884;43.618;1.438;2023-05-10T07:58:20;19.83;;;3.40;;
11655;SDS011;5884;43.618;1.438;2023-05-10T08:00:48;18.17;;;3.83;;
11655;SDS011;5884;43.618;1.438;2023-05-10T08:03:15;22.23;;;4.37;;
11655;SDS011;5884;43.618;1.438;2023-05-10T08:05:42;19.67;;;2.97;;
11655;SDS011;5884;43.618;1.438;2023-05-10T08:08:09;15.57;;;3.13;;
11655;SDS011;5884;43.618;1.438;2023-05-10T08:10:36;25.50;;;4.00;;
11655;SDS011;5884;43.618;1.438;2023-05-10T08:13:05;15.97;;;3.80;;
11655;SDS011;5884;43.618;1.438;2023-05-10T08:15:32;22.43;;;4.03;;
11655;SDS011;5884;43.618;1.438;2023-05-10T08:18:00;17.30;;;3.10;;
11655;SDS011;5884;43.618;1.438;2023-05-10T08:20:27;13.63;;;3.13;;
11655;SDS011;5884;43.618;1.438;2023-05-10T08:22:54;18.40;;;3.80;;
11655;SDS011;5884;43.618;1.438;2023-05-10T08:25:21;12.20;;;2.90;;
11655;SDS011;5884;43.618;1.438;2023-05-10T08:27:48;17.07;;;3.33;;
11655;SDS011;5884;43.618;1.438;2023-05-10T08:30:17;20.77;;;3.13;;
11655;SDS011;5884;43.618;1.438;2023-05-10T08:32:44;16.63;;;3.23;;
11655;SDS011;5884;43.618;1.438;2023-05-10T08:35:11;16.63;;;3.50;;
11655;SDS011;5884;43.618;1.438;2023-05-10T08:37:39;15.97;;;3.07;;
11655;SDS011;5884;43.618;1.438;2023-05-10T08:40:06;14.10;;;3.07;;
11655;SDS011;5884;43.618;1.438;2023-05-10T08:42:36;14.57;;;3.27;;
11655;SDS011;5884;43.618;1.438;2023-05-10T08:45:06;14.13;;;2.97;;
11655;SDS011;5884;43.618;1.438;2023-05-10T08:47:36;13.40;;;3.23;;
11655;SDS011;5884;43.618;1.438;2023-05-10T08:50:05;16.33;;;2.83;;
11655;SDS011;5884;43.618;1.438;2023-05-10T08:52:34;15.93;;;3.20;;
11655;SDS011;5884;43.618;1.438;2023-05-10T08:55:05;12.13;;;3.53;;
11655;SDS011;5884;43.618;1.438;2023-05-10T08:57:33;17.47;;;2.87;;
11655;SDS011;5884;43.618;1.438;2023-05-10T09:00:00;17.13;;;3.57;;
11655;SDS011;5884;43.618;1.438;2023-05-10T09:02:28;13.60;;;3.03;;
11655;SDS011;5884;43.618;1.438;2023-05-10T09:04:57;14.43;;;2.80;;
11655;SDS011;5884;43.618;1.438;2023-05-10T09:07:25;12.77;;;3.20;;
11655;SDS011;5884;43.618;1.438;2023-05-10T09:09:53;13.87;;;3.03;;
11655;SDS011;5884;43.618;1.438;2023-05-10T09:12:21;13.00;;;3.13;;
11655;SDS011;5884;43.618;1.438;2023-05-10T09:14:48;12.17;;;2.93;;
11655;SDS011;5884;43.618;1.438;2023-05-10T09:17:18;11.73;;;2.50;;
11655;SDS011;5884;43.618;1.438;2023-05-10T09:19:45;13.07;;;2.50;;
11655;SDS011;5884;43.618;1.438;2023-05-10T09:22:13;9.63;;;2.20;;
11655;SDS011;5884;43.618;1.438;2023-05-10T09:24:42;13.53;;;3.13;;
11655;SDS011;5884;43.618;1.438;2023-05-10T09:27:10;13.10;;;2.40;;
11655;SDS011;5884;43.618;1.438;2023-05-10T09:29:41;12.23;;;2.47;;
11655;SDS011;5884;43.618;1.438;2023-05-10T09:32:09;9.47;;;2.47;;
11655;SDS011;5884;43.618;1.438;2023-05-10T09:34:36;8.57;;;2.07;;
11655;SDS011;5884;43.618;1.438;2023-05-10T09:37:05;14.93;;;2.93;;
11655;SDS011;5884;43.618;1.438;2023-05-10T09:39:35;10.93;;;2.70;;
11655;SDS011;5884;43.618;1.438;2023-05-10T09:42:03;14.37;;;2.47;;
11655;SDS011;5884;43.618;1.438;2023-05-10T09:44:34;11.30;;;2.47;;
11655;SDS011;5884;43.618;1.438;2023-05-10T09:47:03;13.67;;;2.50;;
11655;SDS011;5884;43.618;1.438;2023-05-10T09:49:32;8.60;;;2.73;;
11655;SDS011;5884;43.618;1.438;2023-05-10T09:51:59;12.37;;;2.60;;
11655;SDS011;5884;43.618;1.438;2023-05-10T09:54:28;13.37;;;2.97;;
11655;SDS011;5884;43.618;1.438;2023-05-10T09:56:58;13.43;;;3.00;;
11655;SDS011;5884;43.618;1.438;2023-05-10T09:59:25;14.50;;;2.60;;
11655;SDS011;5884;43.618;1.438;2023-05-10T10:01:55;7.90;;;2.23;;
11655;SDS011;5884;43.618;1.438;2023-05-10T10:04:23;12.93;;;2.40;;
11655;SDS011;5884;43.618;1.438;2023-05-10T10:07:00;15.70;;;2.40;;
11655;SDS011;5884;43.618;1.438;2023-05-10T10:09:29;11.23;;;2.10;;
11655;SDS011;5884;43.618;1.438;2023-05-10T10:11:58;12.53;;;2.67;;
11655;SDS011;5884;43.618;1.438;2023-05-10T10:14:26;10.57;;;2.97;;
11655;SDS011;5884;43.618;1.438;2023-05-10T10:16:53;10.47;;;2.30;;
11655;SDS011;5884;43.618;1.438;2023-05-10T10:19:21;10.33;;;2.83;;
11655;SDS011;5884;43.618;1.438;2023-05-10T10:21:49;7.67;;;2.17;;
11655;SDS011;5884;43.618;1.438;2023-05-10T10:24:17;11.13;;;2.30;;
11655;SDS011;5884;43.618;1.438;2023-05-10T10:26:44;9.83;;;2.10;;
11655;SDS011;5884;43.618;1.438;2023-05-10T10:29:18;8.20;;;2.30;;
11655;SDS011;5884;43.618;1.438;2023-05-10T10:31:52;14.20;;;2.60;;
11655;SDS011;5884;43.618;1.438;2023-05-10T10:34:29;8.17;;;2.00;;
11655;SDS011;5884;43.618;1.438;2023-05-10T10:36:57;7.07;;;1.87;;
11655;SDS011;5884;43.618;1.438;2023-05-10T10:39:31;9.77;;;2.23;;
11655;SDS011;5884;43.618;1.438;2023-05-10T10:42:01;10.03;;;2.20;;
11655;SDS011;5884;43.618;1.438;2023-05-10T10:44:35;7.40;;;2.43;;
11655;SDS011;5884;43.618;1.438;2023-05-10T10:47:21;5.60;;;1.60;;
11655;SDS011;5884;43.618;1.438;2023-05-10T10:49:50;9.90;;;2.10;;
11655;SDS011;5884;43.618;1.438;2023-05-10T10:52:23;6.90;;;1.80;;
11655;SDS011;5884;43.618;1.438;2023-05-10T10:54:57;10.30;;;2.27;;
11655;SDS011;5884;43.618;1.438;2023-05-10T10:57:27;11.17;;;2.63;;
11655;SDS011;5884;43.618;1.438;2023-05-10T11:02:53;7.47;;;1.90;;
11655;SDS011;5884;43.618;1.438;2023-05-10T11:08:13;11.93;;;3.00;;
11655;SDS011;5884;43.618;1.438;2023-05-10T11:11:03;13.37;;;3.37;;
11655;SDS011;5884;43.618;1.438;2023-05-10T11:13:38;10.80;;;2.63;;
11655;SDS011;5884;43.618;1.438;2023-05-10T11:16:11;13.40;;;3.00;;
11655;SDS011;5884;43.618;1.438;2023-05-10T11:18:49;11.97;;;2.23;;
11655;SDS011;5884;43.618;1.438;2023-05-10T11:21:28;10.77;;;2.60;;
11655;SDS011;5884;43.618;1.438;2023-05-10T11:23:58;7.73;;;2.00;;
11655;SDS011;5884;43.618;1.438;2023-05-10T11:26:30;12.17;;;3.07;;
11655;SDS011;5884;43.618;1.438;2023-05-10T11:28:58;8.40;;;2.23;;
11655;SDS011;5884;43.618;1.438;2023-05-10T11:31:28;13.10;;;3.20;;
11655;SDS011;5884;43.618;1.438;2023-05-10T11:33:56;13.77;;;3.40;;
11655;SDS011;5884;43.618;1.438;2023-05-10T11:36:27;13.47;;;2.90;;
11655;SDS011;5884;43.618;1.438;2023-05-10T11:38:56;14.13;;;2.97;;
11655;SDS011;5884;43.618;1.438;2023-05-10T11:41:24;11.70;;;2.07;;
11655;SDS011;5884;43.618;1.438;2023-05-10T11:43:54;14.93;;;2.80;;
11655;SDS011;5884;43.618;1.438;2023-05-10T11:46:22;15.43;;;2.80;;
11655;SDS011;5884;43.618;1.438;2023-05-10T11:48:57;7.80;;;1.63;;
11655;SDS011;5884;43.618;1.438;2023-05-10T11:51:29;7.57;;;1.57;;
11655;SDS011;5884;43.618;1.438;2023-05-10T11:53:59;8.13;;;1.90;;
11655;SDS011;5884;43.618;1.438;2023-05-10T11:56:26;4.57;;;1.67;;
11655;SDS011;5884;43.618;1.438;2023-05-10T11:58:54;5.87;;;1.70;;
11655;SDS011;5884;43.618;1.438;2023-05-10T12:01:23;7.37;;;1.60;;
11655;SDS011;5884;43.618;1.438;2023-05-10T12:03:53;5.13;;;1.57;;
11655;SDS011;5884;43.618;1.438;2023-05-10T12:06:25;6.53;;;1.60;;
11655;SDS011;5884;43.618;1.438;2023-05-10T12:08:53;5.73;;;1.30;;
11655;SDS011;5884;43.618;1.438;2023-05-10T12:11:24;6.70;;;1.43;;
11655;SDS011;5884;43.618;1.438;2023-05-10T12:13:52;4.57;;;1.20;;
11655;SDS011;5884;43.618;1.438;2023-05-10T12:16:20;9.47;;;1.80;;
11655;SDS011;5884;43.618;1.438;2023-05-10T12:18:49;2.53;;;0.93;;
11655;SDS011;5884;43.618;1.438;2023-05-10T12:21:18;4.90;;;1.40;;
11655;SDS011;5884;43.618;1.438;2023-05-10T12:23:48;4.53;;;1.40;;
11655;SDS011;5884;43.618;1.438;2023-05-10T12:26:18;6.60;;;1.80;;
11655;SDS011;5884;43.618;1.438;2023-05-10T12:28:48;8.67;;;1.97;;
11655;SDS011;5884;43.618;1.438;2023-05-10T12:31:15;4.67;;;1.30;;
11655;SDS011;5884;43.618;1.438;2023-05-10T12:33:43;6.50;;;1.60;;
11655;SDS011;5884;43.618;1.438;2023-05-10T12:36:11;4.17;;;1.40;;
11655;SDS011;5884;43.618;1.438;2023-05-10T12:38:41;4.33;;;1.40;;
11655;SDS011;5884;43.618;1.438;2023-05-10T12:41:13;8.77;;;2.00;;
11655;SDS011;5884;43.618;1.438;2023-05-10T12:43:42;9.93;;;2.23;;
11655;SDS011;5884;43.618;1.438;2023-05-10T12:46:10;11.07;;;1.77;;
11655;SDS011;5884;43.618;1.438;2023-05-10T12:48:39;8.87;;;1.73;;
11655;SDS011;5884;43.618;1.438;2023-05-10T12:51:08;8.07;;;1.90;;
11655;SDS011;5884;43.618;1.438;2023-05-10T12:53:37;7.27;;;2.10;;
11655;SDS011;5884;43.618;1.438;2023-05-10T12:56:07;9.13;;;1.87;;
11655;SDS011;5884;43.618;1.438;2023-05-10T12:58:34;5.63;;;1.40;;
11655;SDS011;5884;43.618;1.438;2023-05-10T13:01:01;6.50;;;1.30;;
11655;SDS011;5884;43.618;1.438;2023-05-10T13:03:29;7.63;;;2.00;;
11655;SDS011;5884;43.618;1.438;2023-05-10T13:05:57;5.37;;;1.40;;
11655;SDS011;5884;43.618;1.438;2023-05-10T13:08:24;5.73;;;1.60;;
11655;SDS011;5884;43.618;1.438;2023-05-10T13:10:51;4.83;;;1.23;;
11655;SDS011;5884;43.618;1.438;2023-05-10T13:13:20;5.30;;;1.90;;
11655;SDS011;5884;43.618;1.438;2023-05-10T13:15:47;4.87;;;1.40;;
11655;SDS011;5884;43.618;1.438;2023-05-10T13:18:14;6.57;;;1.70;;
11655;SDS011;5884;43.618;1.438;2023-05-10T13:20:41;6.60;;;1.47;;
11655;SDS011;5884;43.618;1.438;2023-05-10T13:23:09;6.03;;;1.20;;
11655;SDS011;5884;43.618;1.438;2023-05-10T13:25:36;6.63;;;1.30;;
11655;SDS011;5884;43.618;1.438;2023-05-10T13:28:04;4.27;;;1.30;;
11655;SDS011;5884;43.618;1.438;2023-05-10T13:30:32;6.23;;;1.30;;
11655;SDS011;5884;43.618;1.438;2023-05-10T13:33:00;5.70;;;1.40;;
11655;SDS011;5884;43.618;1.438;2023-05-10T13:35:27;6.10;;;1.50;;
11655;SDS011;5884;43.618;1.438;2023-05-10T13:37:54;4.60;;;1.17;;
11655;SDS011;5884;43.618;1.438;2023-05-10T13:40:22;4.77;;;1.10;;
11655;SDS011;5884;43.618;1.438;2023-05-10T13:42:50;6.17;;;1.53;;
11655;SDS011;5884;43.618;1.438;2023-05-10T13:45:18;7.37;;;1.80;;
11655;SDS011;5884;43.618;1.438;2023-05-10T13:47:47;5.83;;;1.10;;
11655;SDS011;5884;43.618;1.438;2023-05-10T13:50:14;4.43;;;1.47;;
11655;SDS011;5884;43.618;1.438;2023-05-10T13:52:41;5.10;;;1.30;;
11655;SDS011;5884;43.618;1.438;2023-05-10T13:55:09;8.23;;;1.80;;
11655;SDS011;5884;43.618;1.438;2023-05-10T13:57:37;6.13;;;1.77;;
11655;SDS011;5884;43.618;1.438;2023-05-10T14:00:05;8.17;;;1.80;;
11655;SDS011;5884;43.618;1.438;2023-05-10T14:02:33;10.40;;;2.00;;
11655;SDS011;5884;43.618;1.438;2023-05-10T14:05:02;5.43;;;1.73;;
11655;SDS011;5884;43.618;1.438;2023-05-10T14:07:30;6.93;;;1.60;;
11655;SDS011;5884;43.618;1.438;2023-05-10T14:09:58;6.63;;;1.40;;
11655;SDS011;5884;43.618;1.438;2023-05-10T14:12:26;6.27;;;1.60;;
11655;SDS011;5884;43.618;1.438;2023-05-10T14:14:54;6.77;;;1.53;;
11655;SDS011;5884;43.618;1.438;2023-05-10T14:17:21;6.43;;;2.10;;
11655;SDS011;5884;43.618;1.438;2023-05-10T14:19:48;6.70;;;1.70;;
11655;SDS011;5884;43.618;1.438;2023-05-10T14:22:17;5.53;;;1.70;;
11655;SDS011;5884;43.618;1.438;2023-05-10T14:24:44;5.40;;;1.47;;
11655;SDS011;5884;43.618;1.438;2023-05-10T14:27:12;6.43;;;1.60;;
11655;SDS011;5884;43.618;1.438;2023-05-10T14:29:39;6.77;;;1.73;;
11655;SDS011;5884;43.618;1.438;2023-05-10T14:32:07;5.00;;;1.77;;
11655;SDS011;5884;43.618;1.438;2023-05-10T14:34:34;7.80;;;1.73;;
11655;SDS011;5884;43.618;1.438;2023-05-10T14:37:01;6.97;;;2.20;;
11655;SDS011;5884;43.618;1.438;2023-05-10T14:39:30;10.13;;;2.00;;
11655;SDS011;5884;43.618;1.438;2023-05-10T14:41:58;8.70;;;2.00;;
11655;SDS011;5884;43.618;1.438;2023-05-10T14:44:25;5.60;;;1.73;;
11655;SDS011;5884;43.618;1.438;2023-05-10T14:46:52;6.97;;;1.70;;
11655;SDS011;5884;43.618;1.438;2023-05-10T14:49:20;5.53;;;1.47;;
11655;SDS011;5884;43.618;1.438;2023-05-10T14:51:50;3.93;;;1.40;;
11655;SDS011;5884;43.618;1.438;2023-05-10T14:54:18;5.70;;;1.80;;
11655;SDS011;5884;43.618;1.438;2023-05-10T14:56:47;4.60;;;1.67;;
11655;SDS011;5884;43.618;1.438;2023-05-10T14:59:14;6.80;;;1.93;;
11655;SDS011;5884;43.618;1.438;2023-05-10T15:01:42;6.67;;;1.40;;
11655;SDS011;5884;43.618;1.438;2023-05-10T15:04:09;5.63;;;1.47;;
11655;SDS011;5884;43.618;1.438;2023-05-10T15:06:38;5.60;;;1.90;;
11655;SDS011;5884;43.618;1.438;2023-05-10T15:09:06;5.00;;;1.60;;
11655;SDS011;5884;43.618;1.438;2023-05-10T15:11:33;6.07;;;1.70;;
11655;SDS011;5884;43.618;1.438;2023-05-10T15:14:02;5.10;;;1.90;;
11655;SDS011;5884;43.618;1.438;2023-05-10T15:16:29;6.73;;;1.60;;
11655;SDS011;5884;43.618;1.438;2023-05-10T15:18:56;6.47;;;1.40;;
11655;SDS011;5884;43.618;1.438;2023-05-10T15:21:23;5.03;;;1.60;;
11655;SDS011;5884;43.618;1.438;2023-05-10T15:23:51;5.07;;;1.70;;
11655;SDS011;5884;43.618;1.438;2023-05-10T15:26:18;7.23;;;2.10;;
11655;SDS011;5884;43.618;1.438;2023-05-10T15:28:47;7.37;;;1.70;;
11655;SDS011;5884;43.618;1.438;2023-05-10T15:31:15;5.70;;;1.80;;
11655;SDS011;5884;43.618;1.438;2023-05-10T15:33:42;6.47;;;1.40;;
11655;SDS011;5884;43.618;1.438;2023-05-10T15:36:10;4.17;;;1.37;;
11655;SDS011;5884;43.618;1.438;2023-05-10T15:38:37;2.70;;;1.13;;
11655;SDS011;5884;43.618;1.438;2023-05-10T15:41:04;4.20;;;1.40;;
11655;SDS011;5884;43.618;1.438;2023-05-10T15:43:31;4.63;;;1.50;;
11655;SDS011;5884;43.618;1.438;2023-05-10T15:45:58;4.73;;;1.30;;
11655;SDS011;5884;43.618;1.438;2023-05-10T15:48:27;4.43;;;1.27;;
11655;SDS011;5884;43.618;1.438;2023-05-10T15:50:56;10.23;;;2.00;;
11655;SDS011;5884;43.618;1.438;2023-05-10T15:53:23;5.53;;;1.50;;
11655;SDS011;5884;43.618;1.438;2023-05-10T15:55:51;8.37;;;1.87;;
11655;SDS011;5884;43.618;1.438;2023-05-10T15:58:18;8.90;;;2.07;;
11655;SDS011;5884;43.618;1.438;2023-05-10T16:00:45;4.97;;;1.60;;
11655;SDS011;5884;43.618;1.438;2023-05-10T16:03:12;5.60;;;1.77;;
11655;SDS011;5884;43.618;1.438;2023-05-10T16:05:41;4.60;;;1.63;;
11655;SDS011;5884;43.618;1.438;2023-05-10T16:08:08;8.30;;;2.23;;
11655;SDS011;5884;43.618;1.438;2023-05-10T16:10:36;4.37;;;1.70;;
11655;SDS011;5884;43.618;1.438;2023-05-10T16:13:03;5.53;;;1.60;;
11655;SDS011;5884;43.618;1.438;2023-05-10T16:15:30;6.63;;;1.97;;
11655;SDS011;5884;43.618;1.438;2023-05-10T16:17:58;5.33;;;1.60;;
11655;SDS011;5884;43.618;1.438;2023-05-10T16:20:25;8.10;;;1.70;;
11655;SDS011;5884;43.618;1.438;2023-05-10T16:22:55;6.67;;;1.70;;
11655;SDS011;5884;43.618;1.438;2023-05-10T16:25:22;4.87;;;1.40;;
11655;SDS011;5884;43.618;1.438;2023-05-10T16:27:50;4.00;;;1.37;;
11655;SDS011;5884;43.618;1.438;2023-05-10T16:30:17;6.33;;;1.30;;
11655;SDS011;5884;43.618;1.438;2023-05-10T16:32:44;7.20;;;1.50;;
11655;SDS011;5884;43.618;1.438;2023-05-10T16:35:12;7.33;;;1.57;;
11655;SDS011;5884;43.618;1.438;2023-05-10T16:37:39;9.50;;;1.80;;
11655;SDS011;5884;43.618;1.438;2023-05-10T16:40:08;3.93;;;1.50;;
11655;SDS011;5884;43.618;1.438;2023-05-10T16:42:36;4.50;;;1.57;;
11655;SDS011;5884;43.618;1.438;2023-05-10T16:45:04;6.03;;;1.60;;
11655;SDS011;5884;43.618;1.438;2023-05-10T16:47:33;4.53;;;1.47;;
11655;SDS011;5884;43.618;1.438;2023-05-10T16:50:01;5.53;;;1.50;;
11655;SDS011;5884;43.618;1.438;2023-05-10T16:52:30;6.33;;;1.60;;
11655;SDS011;5884;43.618;1.438;2023-05-10T16:54:58;7.47;;;1.43;;
11655;SDS011;5884;43.618;1.438;2023-05-10T16:57:27;7.13;;;1.60;;
11655;SDS011;5884;43.618;1.438;2023-05-10T16:59:54;5.00;;;1.50;;
11655;SDS011;5884;43.618;1.438;2023-05-10T17:02:22;5.83;;;1.90;;
11655;SDS011;5884;43.618;1.438;2023-05-10T17:04:49;5.83;;;1.47;;
11655;SDS011;5884;43.618;1.438;2023-05-10T17:07:18;5.90;;;1.53;;
11655;SDS011;5884;43.618;1.438;2023-05-10T17:09:46;4.33;;;1.60;;
11655;SDS011;5884;43.618;1.438;2023-05-10T17:12:13;7.00;;;1.80;;
11655;SDS011;5884;43.618;1.438;2023-05-10T17:14:42;6.80;;;1.80;;
11655;SDS011;5884;43.618;1.438;2023-05-10T17:17:09;5.83;;;1.30;;
11655;SDS011;5884;43.618;1.438;2023-05-10T17:19:36;5.53;;;1.70;;
11655;SDS011;5884;43.618;1.438;2023-05-10T17:22:04;5.87;;;1.83;;
11655;SDS011;5884;43.618;1.438;2023-05-10T17:24:31;5.43;;;1.70;;
11655;SDS011;5884;43.618;1.438;2023-05-10T17:26:58;6.83;;;1.60;;
11655;SDS011;5884;43.618;1.438;2023-05-10T17:29:27;5.13;;;1.80;;
11655;SDS011;5884;43.618;1.438;2023-05-10T17:31:57;6.77;;;1.60;;
11655;SDS011;5884;43.618;1.438;2023-05-10T17:34:24;5.47;;;1.57;;
11655;SDS011;5884;43.618;1.438;2023-05-10T17:36:52;5.53;;;1.63;;
11655;SDS011;5884;43.618;1.438;2023-05-10T17:39:19;5.50;;;1.50;;
11655;SDS011;5884;43.618;1.438;2023-05-10T17:41:46;5.67;;;1.80;;
11655;SDS011;5884;43.618;1.438;2023-05-10T17:44:14;4.83;;;1.33;;
11655;SDS011;5884;43.618;1.438;2023-05-10T17:46:41;9.33;;;2.17;;
11655;SDS011;5884;43.618;1.438;2023-05-10T17:49:09;9.50;;;3.00;;
11655;SDS011;5884;43.618;1.438;2023-05-10T17:51:36;7.97;;;2.13;;
11655;SDS011;5884;43.618;1.438;2023-05-10T17:54:05;7.27;;;3.67;;
11655;SDS011;5884;43.618;1.438;2023-05-10T17:56:32;4.83;;;1.93;;
11655;SDS011;5884;43.618;1.438;2023-05-10T17:58:59;10.77;;;2.00;;
11655;SDS011;5884;43.618;1.438;2023-05-10T18:01:27;5.57;;;1.30;;
11655;SDS011;5884;43.618;1.438;2023-05-10T18:03:55;5.13;;;1.20;;
11655;SDS011;5884;43.618;1.438;2023-05-10T18:06:23;4.43;;;1.30;;
11655;SDS011;5884;43.618;1.438;2023-05-10T18:08:51;3.47;;;1.10;;
11655;SDS011;5884;43.618;1.438;2023-05-10T18:11:18;4.40;;;1.33;;
11655;SDS011;5884;43.618;1.438;2023-05-10T18:13:46;4.27;;;1.33;;
11655;SDS011;5884;43.618;1.438;2023-05-10T18:16:13;8.33;;;1.67;;
11655;SDS011;5884;43.618;1.438;2023-05-10T18:18:40;8.03;;;1.40;;
11655;SDS011;5884;43.618;1.438;2023-05-10T18:21:07;5.67;;;1.67;;
11655;SDS011;5884;43.618;1.438;2023-05-10T18:23:36;6.30;;;1.50;;
11655;SDS011;5884;43.618;1.438;2023-05-10T18:26:03;5.47;;;1.80;;
11655;SDS011;5884;43.618;1.438;2023-05-10T18:28:30;6.53;;;1.60;;
11655;SDS011;5884;43.618;1.438;2023-05-10T18:30:58;3.80;;;1.40;;
11655;SDS011;5884;43.618;1.438;2023-05-10T18:33:25;4.97;;;1.70;;
11655;SDS011;5884;43.618;1.438;2023-05-10T18:35:52;7.13;;;1.60;;
11655;SDS011;5884;43.618;1.438;2023-05-10T18:38:19;8.50;;;2.23;;
11655;SDS011;5884;43.618;1.438;2023-05-10T18:40:48;5.53;;;2.20;;
11655;SDS011;5884;43.618;1.438;2023-05-10T18:43:16;9.87;;;2.23;;
11655;SDS011;5884;43.618;1.438;2023-05-10T18:45:43;6.70;;;2.10;;
11655;SDS011;5884;43.618;1.438;2023-05-10T18:48:10;11.10;;;2.23;;
11655;SDS011;5884;43.618;1.438;2023-05-10T18:50:37;7.93;;;2.27;;
11655;SDS011;5884;43.618;1.438;2023-05-10T18:53:05;8.53;;;2.30;;
11655;SDS011;5884;43.618;1.438;2023-05-10T18:55:32;8.77;;;2.73;;
11655;SDS011;5884;43.618;1.438;2023-05-10T18:58:00;6.33;;;2.20;;
11655;SDS011;5884;43.618;1.438;2023-05-10T19:00:28;6.63;;;2.23;;
11655;SDS011;5884;43.618;1.438;2023-05-10T19:02:55;7.73;;;2.07;;
11655;SDS011;5884;43.618;1.438;2023-05-10T19:05:22;6.13;;;1.93;;
11655;SDS011;5884;43.618;1.438;2023-05-10T19:07:53;6.73;;;1.90;;
11655;SDS011;5884;43.618;1.438;2023-05-10T19:10:21;5.20;;;2.23;;
11655;SDS011;5884;43.618;1.438;2023-05-10T19:12:48;8.13;;;2.10;;
11655;SDS011;5884;43.618;1.438;2023-05-10T19:15:17;5.77;;;1.97;;
11655;SDS011;5884;43.618;1.438;2023-05-10T19:17:44;6.53;;;2.07;;
11655;SDS011;5884;43.618;1.438;2023-05-10T19:20:11;8.43;;;2.13;;
11655;SDS011;5884;43.618;1.438;2023-05-10T19:22:40;7.03;;;1.97;;
11655;SDS011;5884;43.618;1.438;2023-05-10T19:25:07;7.40;;;1.70;;
11655;SDS011;5884;43.618;1.438;2023-05-10T19:27:37;9.73;;;2.50;;
11655;SDS011;5884;43.618;1.438;2023-05-10T19:30:04;5.87;;;2.10;;
11655;SDS011;5884;43.618;1.438;2023-05-10T19:32:34;5.57;;;1.77;;
11655;SDS011;5884;43.618;1.438;2023-05-10T19:35:02;5.60;;;1.97;;
11655;SDS011;5884;43.618;1.438;2023-05-10T19:37:30;8.07;;;2.33;;
11655;SDS011;5884;43.618;1.438;2023-05-10T19:39:57;9.80;;;2.03;;
11655;SDS011;5884;43.618;1.438;2023-05-10T19:42:24;9.50;;;2.30;;
11655;SDS011;5884;43.618;1.438;2023-05-10T19:44:52;6.97;;;2.03;;
11655;SDS011;5884;43.618;1.438;2023-05-10T19:47:19;7.87;;;2.10;;
11655;SDS011;5884;43.618;1.438;2023-05-10T19:49:47;5.43;;;1.80;;
11655;SDS011;5884;43.618;1.438;2023-05-10T19:52:15;8.63;;;2.53;;